sensor_id;sensor_type;location;lat;lon;timestamp;pressure;altitude;pressure_sealevel;temperature;humidity
24154;BME280;12312;53.362;-1.518;2023-05-13T00:02:37;100494.34;;;8.61;100.00
24154;BME280;12312;53.362;-1.518;2023-05-13T00:05:21;100487.44;;;8.77;100.00
24154;BME280;12312;53.362;-1.518;2023-05-13T00:08:05;100483.22;;;8.73;100.00
24154;BME280;12312;53.362;-1.518;2023-05-13T00:10:52;100499.50;;;8.64;100.00
24154;BME280;12312;53.362;-1.518;2023-05-13T00:13:36;100483.72;;;8.61;100.00
24154;BME280;12312;53.362;-1.518;2023-05-13T00:16:21;100498.47;;;8.68;100.00
24154;BME280;12312;53.362;-1.518;2023-05-13T00:19:08;100494.88;;;8.69;100.00
24154;BME280;12312;53.362;-1.518;2023-05-13T00:21:52;100498.47;;;8.68;100.00
24154;BME280;12312;53.362;-1.518;2023-05-13T00:24:35;100488.28;;;8.59;100.00
24154;BME280;12312;53.362;-1.518;2023-05-13T00:27:19;100485.81;;;8.75;100.00
24154;BME280;12312;53.362;-1.518;2023-05-13T00:30:04;100482.81;;;8.82;100.00
24154;BME280;12312;53.362;-1.518;2023-05-13T00:32:48;100470.56;;;8.78;100.00
24154;BME280;12312;53.362;-1.518;2023-05-13T00:35:32;100478.28;;;8.64;100.00
24154;BME280;12312;53.362;-1.518;2023-05-13T00:38:16;100478.41;;;8.61;100.00
24154;BME280;12312;53.362;-1.518;2023-05-13T00:41:01;100479.69;;;8.53;100.00
24154;BME280;12312;53.362;-1.518;2023-05-13T00:43:46;100472.75;;;8.50;100.00
24154;BME280;12312;53.362;-1.518;2023-05-13T00:46:31;100486.78;;;8.52;100.00
24154;BME280;12312;53.362;-1.518;2023-05-13T00:49:18;100481.47;;;8.72;100.00
24154;BME280;12312;53.362;-1.518;2023-05-13T00:52:03;100480.94;;;8.64;100.00
24154;BME280;12312;53.362;-1.518;2023-05-13T00:54:47;100479.69;;;8.53;100.00
24154;BME280;12312;53.362;-1.518;2023-05-13T00:57:32;100484.69;;;8.40;100.00
24154;BME280;12312;53.362;-1.518;2023-05-13T01:00:16;100469.38;;;8.47;100.00
24154;BME280;12312;53.362;-1.518;2023-05-13T01:03:20;100471.53;;;8.57;100.00
24154;BME280;12312;53.362;-1.518;2023-05-13T01:09:13;100479.50;;;8.37;100.00
24154;BME280;12312;53.362;-1.518;2023-05-13T01:12:09;100473.78;;;8.46;100.00
24154;BME280;12312;53.362;-1.518;2023-05-13T01:15:16;100477.53;;;8.42;100.00
24154;BME280;12312;53.362;-1.518;2023-05-13T01:18:09;100474.06;;;8.40;100.00
24154;BME280;12312;53.362;-1.518;2023-05-13T01:20:55;100468.72;;;8.20;100.00
24154;BME280;12312;53.362;-1.518;2023-05-13T01:23:41;100468.69;;;8.22;100.00
24154;BME280;12312;53.362;-1.518;2023-05-13T01:26:26;100475.13;;;8.36;100.00
24154;BME280;12312;53.362;-1.518;2023-05-13T01:29:11;100465.91;;;8.45;100.00
24154;BME280;12312;53.362;-1.518;2023-05-13T01:31:56;100473.22;;;8.40;100.00
24154;BME280;12312;53.362;-1.518;2023-05-13T01:34:45;100466.66;;;8.28;100.00
24154;BME280;12312;53.362;-1.518;2023-05-13T01:37:29;100459.75;;;8.44;100.00
24154;BME280;12312;53.362;-1.518;2023-05-13T01:40:15;100453.50;;;8.45;100.00
24154;BME280;12312;53.362;-1.518;2023-05-13T01:42:59;100460.16;;;8.35;100.00
24154;BME280;12312;53.362;-1.518;2023-05-13T01:45:44;100460.31;;;8.51;100.00
24154;BME280;12312;53.362;-1.518;2023-05-13T01:48:28;100454.28;;;8.67;100.00
24154;BME280;12312;53.362;-1.518;2023-05-13T01:51:12;100459.06;;;8.59;100.00
24154;BME280;12312;53.362;-1.518;2023-05-13T01:53:56;100456.16;;;8.25;100.00
24154;BME280;12312;53.362;-1.518;2023-05-13T01:56:40;100457.75;;;8.09;100.00
24154;BME280;12312;53.362;-1.518;2023-05-13T01:59:24;100458.56;;;8.31;100.00
24154;BME280;12312;53.362;-1.518;2023-05-13T02:02:08;100451.13;;;8.39;100.00
24154;BME280;12312;53.362;-1.518;2023-05-13T02:04:52;100458.81;;;8.25;100.00
24154;BME280;12312;53.362;-1.518;2023-05-13T02:07:36;100454.56;;;8.21;100.00
24154;BME280;12312;53.362;-1.518;2023-05-13T02:10:20;100453.25;;;8.31;100.00
24154;BME280;12312;53.362;-1.518;2023-05-13T02:13:04;100455.41;;;8.23;100.00
24154;BME280;12312;53.362;-1.518;2023-05-13T02:15:48;100451.28;;;8.36;100.00
24154;BME280;12312;53.362;-1.518;2023-05-13T02:18:32;100453.44;;;8.47;100.00
24154;BME280;12312;53.362;-1.518;2023-05-13T02:21:16;100457.09;;;8.24;100.00
24154;BME280;12312;53.362;-1.518;2023-05-13T02:24:00;100451.91;;;8.21;100.00
24154;BME280;12312;53.362;-1.518;2023-05-13T02:26:44;100453.41;;;8.07;100.00
24154;BME280;12312;53.362;-1.518;2023-05-13T02:29:29;100452.22;;;8.14;100.00
24154;BME280;12312;53.362;-1.518;2023-05-13T02:32:12;100451.28;;;8.15;100.00
24154;BME280;12312;53.362;-1.518;2023-05-13T02:34:56;100452.69;;;8.03;100.00
24154;BME280;12312;53.362;-1.518;2023-05-13T02:37:41;100451.81;;;8.03;100.00
24154;BME280;12312;53.362;-1.518;2023-05-13T02:40:25;100448.72;;;8.13;100.00
24154;BME280;12312;53.362;-1.518;2023-05-13T02:43:09;100442.50;;;8.34;100.00
24154;BME280;12312;53.362;-1.518;2023-05-13T02:45:53;100441.72;;;8.32;100.00
24154;BME280;12312;53.362;-1.518;2023-05-13T02:48:37;100448.22;;;8.25;100.00
24154;BME280;12312;53.362;-1.518;2023-05-13T02:51:21;100452.84;;;8.40;100.00
24154;BME280;12312;53.362;-1.518;2023-05-13T02:54:05;100444.25;;;8.35;100.00
24154;BME280;12312;53.362;-1.518;2023-05-13T02:56:49;100442.78;;;8.28;100.00
24154;BME280;12312;53.362;-1.518;2023-05-13T02:59:33;100453.75;;;8.19;100.00
24154;BME280;12312;53.362;-1.518;2023-05-13T03:02:17;100442.00;;;8.26;100.00
24154;BME280;12312;53.362;-1.518;2023-05-13T03:05:02;100436.44;;;8.32;100.00
24154;BME280;12312;53.362;-1.518;2023-05-13T03:07:46;100440.06;;;8.30;100.00
24154;BME280;12312;53.362;-1.518;2023-05-13T03:10:30;100446.13;;;8.12;100.00
24154;BME280;12312;53.362;-1.518;2023-05-13T03:13:14;100438.50;;;8.04;100.00
24154;BME280;12312;53.362;-1.518;2023-05-13T03:15:58;100438.63;;;8.01;100.00
24154;BME280;12312;53.362;-1.518;2023-05-13T03:18:42;100439.38;;;8.05;100.00
24154;BME280;12312;53.362;-1.518;2023-05-13T03:21:26;100435.97;;;8.01;100.00
24154;BME280;12312;53.362;-1.518;2023-05-13T03:24:10;100434.38;;;8.17;100.00
24154;BME280;12312;53.362;-1.518;2023-05-13T03:26:57;100444.59;;;8.06;100.00
24154;BME280;12312;53.362;-1.518;2023-05-13T03:29:42;100435.78;;;8.06;100.00
24154;BME280;12312;53.362;-1.518;2023-05-13T03:32:26;100440.47;;;7.99;100.00
24154;BME280;12312;53.362;-1.518;2023-05-13T03:35:13;100444.13;;;7.97;100.00
24154;BME280;12312;53.362;-1.518;2023-05-13T03:37:57;100440.47;;;7.99;100.00
24154;BME280;12312;53.362;-1.518;2023-05-13T03:40:41;100438.34;;;7.87;100.00
24154;BME280;12312;53.362;-1.518;2023-05-13T03:43:25;100439.16;;;7.89;100.00
24154;BME280;12312;53.362;-1.518;2023-05-13T03:46:09;100436.66;;;8.06;100.00
24154;BME280;12312;53.362;-1.518;2023-05-13T03:48:55;100438.91;;;7.95;100.00
24154;BME280;12312;53.362;-1.518;2023-05-13T03:51:40;100446.03;;;7.93;100.00
24154;BME280;12312;53.362;-1.518;2023-05-13T03:54:24;100447.78;;;7.94;100.00
24154;BME280;12312;53.362;-1.518;2023-05-13T03:57:08;100444.94;;;7.99;100.00
24154;BME280;12312;53.362;-1.518;2023-05-13T03:59:52;100448.31;;;7.82;100.00
24154;BME280;12312;53.362;-1.518;2023-05-13T04:02:36;100448.22;;;7.84;100.00
24154;BME280;12312;53.362;-1.518;2023-05-13T04:05:20;100452.38;;;7.69;100.00
24154;BME280;12312;53.362;-1.518;2023-05-13T04:08:05;100457.28;;;7.78;100.00
24154;BME280;12312;53.362;-1.518;2023-05-13T04:10:48;100451.09;;;7.58;100.00
24154;BME280;12312;53.362;-1.518;2023-05-13T04:13:34;100448.44;;;7.79;100.00
24154;BME280;12312;53.362;-1.518;2023-05-13T04:16:18;100448.38;;;7.59;100.00
24154;BME280;12312;53.362;-1.518;2023-05-13T04:19:03;100447.19;;;7.66;100.00
24154;BME280;12312;53.362;-1.518;2023-05-13T04:21:47;100438.09;;;7.73;100.00
24154;BME280;12312;53.362;-1.518;2023-05-13T04:24:31;100451.03;;;7.59;100.00
24154;BME280;12312;53.362;-1.518;2023-05-13T04:27:15;100441.75;;;7.69;100.00
24154;BME280;12312;53.362;-1.518;2023-05-13T04:29:59;100450.66;;;7.68;100.00
24154;BME280;12312;53.362;-1.518;2023-05-13T04:32:43;100459.41;;;7.70;100.00
24154;BME280;12312;53.362;-1.518;2023-05-13T04:35:28;100456.63;;;7.73;100.00
24154;BME280;12312;53.362;-1.518;2023-05-13T04:38:12;100464.56;;;7.73;100.00
24154;BME280;12312;53.362;-1.518;2023-05-13T04:40:56;100458.91;;;7.82;100.00
24154;BME280;12312;53.362;-1.518;2023-05-13T04:43:40;100462.19;;;7.87;100.00
24154;BME280;12312;53.362;-1.518;2023-05-13T04:46:24;100459.63;;;7.86;100.00
24154;BME280;12312;53.362;-1.518;2023-05-13T04:49:08;100459.09;;;7.56;100.00
24154;BME280;12312;53.362;-1.518;2023-05-13T04:51:53;100470.91;;;7.69;100.00
24154;BME280;12312;53.362;-1.518;2023-05-13T04:54:38;100468.13;;;7.72;100.00
24154;BME280;12312;53.362;-1.518;2023-05-13T04:57:22;100464.94;;;7.64;100.00
24154;BME280;12312;53.362;-1.518;2023-05-13T05:00:07;100470.34;;;7.61;100.00
24154;BME280;12312;53.362;-1.518;2023-05-13T05:02:52;100467.66;;;7.41;100.00
24154;BME280;12312;53.362;-1.518;2023-05-13T05:05:36;100471.34;;;7.37;100.00
24154;BME280;12312;53.362;-1.518;2023-05-13T05:08:20;100472.47;;;7.53;100.00
24154;BME280;12312;53.362;-1.518;2023-05-13T05:11:04;100476.94;;;7.51;100.00
24154;BME280;12312;53.362;-1.518;2023-05-13T05:13:48;100470.47;;;7.58;100.00
24154;BME280;12312;53.362;-1.518;2023-05-13T05:16:32;100473.44;;;7.29;100.00
24154;BME280;12312;53.362;-1.518;2023-05-13T05:19:39;100480.84;;;7.43;100.00
24154;BME280;12312;53.362;-1.518;2023-05-13T05:22:23;100477.38;;;7.62;100.00
24154;BME280;12312;53.362;-1.518;2023-05-13T05:25:08;100480.63;;;7.69;100.00
24154;BME280;12312;53.362;-1.518;2023-05-13T05:27:52;100481.19;;;7.55;100.00
24154;BME280;12312;53.362;-1.518;2023-05-13T05:30:37;100483.41;;;7.66;100.00
24154;BME280;12312;53.362;-1.518;2023-05-13T05:33:24;100488.94;;;7.81;100.00
24154;BME280;12312;53.362;-1.518;2023-05-13T05:36:08;100484.03;;;7.72;100.00
24154;BME280;12312;53.362;-1.518;2023-05-13T05:38:53;100482.44;;;7.68;100.00
24154;BME280;12312;53.362;-1.518;2023-05-13T05:41:37;100488.00;;;7.62;100.00
24154;BME280;12312;53.362;-1.518;2023-05-13T05:44:22;100484.78;;;7.54;100.00
24154;BME280;12312;53.362;-1.518;2023-05-13T05:47:06;100482.56;;;7.65;100.00
24154;BME280;12312;53.362;-1.518;2023-05-13T05:49:50;100495.38;;;7.54;100.00
24154;BME280;12312;53.362;-1.518;2023-05-13T05:52:34;100490.38;;;7.68;100.00
24154;BME280;12312;53.362;-1.518;2023-05-13T05:55:18;100493.94;;;7.67;100.00
24154;BME280;12312;53.362;-1.518;2023-05-13T05:58:03;100487.19;;;7.60;100.00
24154;BME280;12312;53.362;-1.518;2023-05-13T06:00:49;100494.88;;;7.66;100.00
24154;BME280;12312;53.362;-1.518;2023-05-13T06:03:33;100497.41;;;7.69;100.00
24154;BME280;12312;53.362;-1.518;2023-05-13T06:06:16;100491.78;;;7.55;100.00
24154;BME280;12312;53.362;-1.518;2023-05-13T06:09:01;100498.47;;;7.65;100.00
24154;BME280;12312;53.362;-1.518;2023-05-13T06:11:44;100495.50;;;7.73;100.00
24154;BME280;12312;53.362;-1.518;2023-05-13T06:14:28;100501.09;;;7.65;100.00
24154;BME280;12312;53.362;-1.518;2023-05-13T06:17:12;100500.06;;;7.69;100.00
24154;BME280;12312;53.362;-1.518;2023-05-13T06:19:57;100491.72;;;7.57;100.00
24154;BME280;12312;53.362;-1.518;2023-05-13T06:22:41;100499.38;;;7.64;100.00
24154;BME280;12312;53.362;-1.518;2023-05-13T06:25:25;100502.19;;;7.60;100.00
24154;BME280;12312;53.362;-1.518;2023-05-13T06:28:10;100516.06;;;7.66;100.00
24154;BME280;12312;53.362;-1.518;2023-05-13T06:30:54;100510.28;;;7.78;100.00
24154;BME280;12312;53.362;-1.518;2023-05-13T06:33:39;100517.00;;;7.65;100.00
24154;BME280;12312;53.362;-1.518;2023-05-13T06:36:23;100516.06;;;7.66;100.00
24154;BME280;12312;53.362;-1.518;2023-05-13T06:39:07;100515.44;;;7.81;100.00
24154;BME280;12312;53.362;-1.518;2023-05-13T06:41:51;100521.50;;;7.63;100.00
24154;BME280;12312;53.362;-1.518;2023-05-13T06:44:35;100515.44;;;7.60;100.00
24154;BME280;12312;53.362;-1.518;2023-05-13T06:47:19;100520.88;;;7.57;100.00
24154;BME280;12312;53.362;-1.518;2023-05-13T06:50:03;100520.28;;;7.72;100.00
24154;BME280;12312;53.362;-1.518;2023-05-13T06:52:47;100522.38;;;7.64;100.00
24154;BME280;12312;53.362;-1.518;2023-05-13T06:55:31;100518.28;;;7.55;100.00
24154;BME280;12312;53.362;-1.518;2023-05-13T06:58:15;100520.88;;;7.57;100.00
24154;BME280;12312;53.362;-1.518;2023-05-13T07:00:59;100514.53;;;7.61;100.00
24154;BME280;12312;53.362;-1.518;2023-05-13T07:03:43;100512.75;;;7.83;100.00
24154;BME280;12312;53.362;-1.518;2023-05-13T07:06:27;100513.06;;;7.75;100.00
24154;BME280;12312;53.362;-1.518;2023-05-13T07:09:12;100506.63;;;8.02;100.00
24154;BME280;12312;53.362;-1.518;2023-05-13T07:11:57;100502.94;;;8.06;100.00
24154;BME280;12312;53.362;-1.518;2023-05-13T07:14:40;100506.81;;;7.98;100.00
24154;BME280;12312;53.362;-1.518;2023-05-13T07:17:26;100512.59;;;8.07;100.00
24154;BME280;12312;53.362;-1.518;2023-05-13T07:20:10;100511.28;;;7.97;100.00
24154;BME280;12312;53.362;-1.518;2023-05-13T07:22:55;100508.47;;;8.22;100.00
24154;BME280;12312;53.362;-1.518;2023-05-13T07:25:38;100510.38;;;8.18;100.00
24154;BME280;12312;53.362;-1.518;2023-05-13T07:28:22;100506.09;;;7.94;100.00
24154;BME280;12312;53.362;-1.518;2023-05-13T07:31:07;100511.59;;;8.10;100.00
24154;BME280;12312;53.362;-1.518;2023-05-13T07:33:52;100515.19;;;8.09;100.00
24154;BME280;12312;53.362;-1.518;2023-05-13T07:36:36;100505.59;;;8.06;100.00
24154;BME280;12312;53.362;-1.518;2023-05-13T07:39:20;100506.03;;;8.16;100.00
24154;BME280;12312;53.362;-1.518;2023-05-13T07:42:04;100509.50;;;8.18;100.00
24154;BME280;12312;53.362;-1.518;2023-05-13T07:44:49;100508.94;;;7.90;100.00
24154;BME280;12312;53.362;-1.518;2023-05-13T07:47:33;100513.34;;;8.11;100.00
24154;BME280;12312;53.362;-1.518;2023-05-13T07:50:17;100510.94;;;8.26;100.00
24154;BME280;12312;53.362;-1.518;2023-05-13T07:53:02;100508.38;;;8.03;100.00
24154;BME280;12312;53.362;-1.518;2023-05-13T07:55:46;100497.06;;;7.98;100.00
24154;BME280;12312;53.362;-1.518;2023-05-13T07:58:30;100504.44;;;8.12;100.00
24154;BME280;12312;53.362;-1.518;2023-05-13T08:01:15;100497.28;;;8.35;100.00
24154;BME280;12312;53.362;-1.518;2023-05-13T08:03:59;100500.78;;;8.56;100.00
24154;BME280;12312;53.362;-1.518;2023-05-13T08:06:43;100505.75;;;8.43;100.00
24154;BME280;12312;53.362;-1.518;2023-05-13T08:09:27;100492.63;;;8.60;100.00
24154;BME280;12312;53.362;-1.518;2023-05-13T08:12:11;100500.72;;;8.77;100.00
24154;BME280;12312;53.362;-1.518;2023-05-13T08:14:55;100493.03;;;8.71;100.00
24154;BME280;12312;53.362;-1.518;2023-05-13T08:17:39;100493.28;;;8.85;100.00
24154;BME280;12312;53.362;-1.518;2023-05-13T08:20:23;100490.34;;;8.91;100.00
24154;BME280;12312;53.362;-1.518;2023-05-13T08:23:12;100495.41;;;8.77;100.00
24154;BME280;12312;53.362;-1.518;2023-05-13T08:25:56;100485.53;;;8.99;100.00
24154;BME280;12312;53.362;-1.518;2023-05-13T08:28:41;100482.16;;;9.15;100.00
24154;BME280;12312;53.362;-1.518;2023-05-13T08:31:25;100486.78;;;9.30;100.00
24154;BME280;12312;53.362;-1.518;2023-05-13T08:34:09;100483.19;;;9.31;100.00
24154;BME280;12312;53.362;-1.518;2023-05-13T08:36:54;100480.44;;;9.14;100.00
24154;BME280;12312;53.362;-1.518;2023-05-13T08:39:37;100484.00;;;9.33;100.00
24154;BME280;12312;53.362;-1.518;2023-05-13T08:42:21;100481.47;;;9.11;100.00
24154;BME280;12312;53.362;-1.518;2023-05-13T08:45:07;100479.03;;;9.07;100.00
24154;BME280;12312;53.362;-1.518;2023-05-13T08:47:57;100490.69;;;9.02;100.00
24154;BME280;12312;53.362;-1.518;2023-05-13T08:50:43;100492.72;;;8.97;100.00
24154;BME280;12312;53.362;-1.518;2023-05-13T08:53:28;100479.78;;;9.08;100.00
24154;BME280;12312;53.362;-1.518;2023-05-13T08:56:13;100494.03;;;9.45;100.00
24154;BME280;12312;53.362;-1.518;2023-05-13T08:58:57;100490.44;;;9.46;100.00
24154;BME280;12312;53.362;-1.518;2023-05-13T09:01:41;100494.47;;;9.36;100.00
24154;BME280;12312;53.362;-1.518;2023-05-13T09:04:26;100498.75;;;9.38;100.00
24154;BME280;12312;53.362;-1.518;2023-05-13T09:07:10;100497.22;;;9.51;100.00
24154;BME280;12312;53.362;-1.518;2023-05-13T09:09:55;100493.81;;;9.31;100.00
24154;BME280;12312;53.362;-1.518;2023-05-13T09:12:48;100498.31;;;9.29;100.00
24154;BME280;12312;53.362;-1.518;2023-05-13T09:15:33;100501.19;;;9.05;100.00
24154;BME280;12312;53.362;-1.518;2023-05-13T09:18:17;100505.78;;;9.21;100.00
24154;BME280;12312;53.362;-1.518;2023-05-13T09:21:26;100502.06;;;9.25;100.00
24154;BME280;12312;53.362;-1.518;2023-05-13T09:24:15;100496.31;;;9.34;100.00
24154;BME280;12312;53.362;-1.518;2023-05-13T09:27:04;100494.03;;;9.45;100.00
24154;BME280;12312;53.362;-1.518;2023-05-13T09:30:00;100490.00;;;9.55;100.00
24154;BME280;12312;53.362;-1.518;2023-05-13T09:35:51;100489.69;;;9.61;100.00
24154;BME280;12312;53.362;-1.518;2023-05-13T09:38:35;100502.63;;;9.50;100.00
24154;BME280;12312;53.362;-1.518;2023-05-13T09:41:25;100497.88;;;9.38;100.00
24154;BME280;12312;53.362;-1.518;2023-05-13T09:44:09;100499.59;;;9.57;100.00
24154;BME280;12312;53.362;-1.518;2023-05-13T09:46:55;100496.88;;;9.59;100.00
24154;BME280;12312;53.362;-1.518;2023-05-13T09:49:40;100500.91;;;9.49;100.00
24154;BME280;12312;53.362;-1.518;2023-05-13T09:52:25;100506.00;;;9.35;100.00
24154;BME280;12312;53.362;-1.518;2023-05-13T09:55:08;100502.63;;;9.50;100.00
24154;BME280;12312;53.362;-1.518;2023-05-13T09:57:53;100508.50;;;9.75;100.00
24154;BME280;12312;53.362;-1.518;2023-05-13T10:00:39;100492.41;;;9.78;100.00
24154;BME280;12312;53.362;-1.518;2023-05-13T10:03:24;100497.44;;;10.01;100.00
24154;BME280;12312;53.362;-1.518;2023-05-13T10:06:10;100490.16;;;10.04;100.00
24154;BME280;12312;53.362;-1.518;2023-05-13T10:08:55;100492.75;;;10.74;100.00
24154;BME280;12312;53.362;-1.518;2023-05-13T10:11:43;100498.59;;;10.48;100.00
24154;BME280;12312;53.362;-1.518;2023-05-13T10:14:30;100489.75;;;10.64;100.00
24154;BME280;12312;53.362;-1.518;2023-05-13T10:17:14;100488.63;;;10.68;100.00
24154;BME280;12312;53.362;-1.518;2023-05-13T10:19:59;100481.94;;;10.77;100.00
24154;BME280;12312;53.362;-1.518;2023-05-13T10:22:45;100488.56;;;10.53;100.00
24154;BME280;12312;53.362;-1.518;2023-05-13T10:25:30;100479.81;;;10.17;100.00
24154;BME280;12312;53.362;-1.518;2023-05-13T10:28:15;100477.78;;;10.22;100.00
24154;BME280;12312;53.362;-1.518;2023-05-13T10:30:59;100468.84;;;10.57;100.00
24154;BME280;12312;53.362;-1.518;2023-05-13T10:33:43;100467.16;;;10.71;100.00
24154;BME280;12312;53.362;-1.518;2023-05-13T10:42:36;100457.34;;;11.05;100.00
24154;BME280;12312;53.362;-1.518;2023-05-13T10:45:24;100456.44;;;10.73;100.00
24154;BME280;12312;53.362;-1.518;2023-05-13T10:48:11;100462.47;;;10.76;100.00
24154;BME280;12312;53.362;-1.518;2023-05-13T10:51:00;100461.38;;;10.96;100.00
24154;BME280;12312;53.362;-1.518;2023-05-13T10:53:49;100464.47;;;10.89;100.00
24154;BME280;12312;53.362;-1.518;2023-05-13T10:56:33;100465.19;;;11.08;100.00
24154;BME280;12312;53.362;-1.518;2023-05-13T10:59:20;100460.28;;;10.67;100.00
24154;BME280;12312;53.362;-1.518;2023-05-13T11:02:23;100459.47;;;10.82;100.00
24154;BME280;12312;53.362;-1.518;2023-05-13T11:05:20;100460.00;;;10.89;100.00
24154;BME280;12312;53.362;-1.518;2023-05-13T11:08:05;100460.97;;;10.71;100.00
24154;BME280;12312;53.362;-1.518;2023-05-13T11:10:53;100444.31;;;11.16;100.00
24154;BME280;12312;53.362;-1.518;2023-05-13T11:13:37;100443.16;;;11.97;100.00
24154;BME280;12312;53.362;-1.518;2023-05-13T11:16:21;100436.25;;;12.52;100.00
24154;BME280;12312;53.362;-1.518;2023-05-13T11:19:27;100436.81;;;12.43;100.00
24154;BME280;12312;53.362;-1.518;2023-05-13T11:22:12;100437.31;;;12.78;100.00
24154;BME280;12312;53.362;-1.518;2023-05-13T11:25:08;100435.81;;;12.30;100.00
24154;BME280;12312;53.362;-1.518;2023-05-13T11:27:52;100419.28;;;13.24;100.00
24154;BME280;12312;53.362;-1.518;2023-05-13T11:30:36;100430.31;;;13.99;100.00
24154;BME280;12312;53.362;-1.518;2023-05-13T11:33:20;100420.13;;;14.31;100.00
24154;BME280;12312;53.362;-1.518;2023-05-13T11:36:04;100410.84;;;14.22;100.00
24154;BME280;12312;53.362;-1.518;2023-05-13T11:38:49;100414.56;;;14.96;96.40
24154;BME280;12312;53.362;-1.518;2023-05-13T11:41:33;100412.94;;;15.55;92.06
24154;BME280;12312;53.362;-1.518;2023-05-13T11:44:21;100405.69;;;16.26;89.63
24154;BME280;12312;53.362;-1.518;2023-05-13T11:47:06;100411.31;;;16.80;83.95
24154;BME280;12312;53.362;-1.518;2023-05-13T11:49:51;100410.53;;;16.45;81.92
24154;BME280;12312;53.362;-1.518;2023-05-13T11:52:35;100398.38;;;15.93;81.12
24154;BME280;12312;53.362;-1.518;2023-05-13T11:55:29;100405.66;;;16.50;81.15
24154;BME280;12312;53.362;-1.518;2023-05-13T11:58:14;100401.78;;;17.85;73.81
24154;BME280;12312;53.362;-1.518;2023-05-13T12:00:59;100396.31;;;17.64;75.44
24154;BME280;12312;53.362;-1.518;2023-05-13T12:03:43;100394.75;;;17.93;73.28
24154;BME280;12312;53.362;-1.518;2023-05-13T12:06:26;100394.38;;;17.66;72.42
24154;BME280;12312;53.362;-1.518;2023-05-13T12:09:11;100392.19;;;17.60;72.30
24154;BME280;12312;53.362;-1.518;2023-05-13T12:11:56;100383.88;;;17.52;71.36
24154;BME280;12312;53.362;-1.518;2023-05-13T12:14:42;100380.81;;;17.56;70.80
24154;BME280;12312;53.362;-1.518;2023-05-13T12:17:26;100380.94;;;17.55;70.45
24154;BME280;12312;53.362;-1.518;2023-05-13T12:22:55;100380.38;;;18.04;73.03
24154;BME280;12312;53.362;-1.518;2023-05-13T12:25:46;100376.53;;;18.58;69.08
24154;BME280;12312;53.362;-1.518;2023-05-13T12:28:31;100368.03;;;18.53;72.08
24154;BME280;12312;53.362;-1.518;2023-05-13T12:31:15;100369.47;;;17.53;77.22
24154;BME280;12312;53.362;-1.518;2023-05-13T12:34:00;100357.44;;;19.01;66.42
24154;BME280;12312;53.362;-1.518;2023-05-13T12:36:44;100361.56;;;19.35;66.82
24154;BME280;12312;53.362;-1.518;2023-05-13T12:39:28;100365.53;;;19.40;62.64
24154;BME280;12312;53.362;-1.518;2023-05-13T12:42:14;100354.38;;;18.14;67.62
24154;BME280;12312;53.362;-1.518;2023-05-13T12:44:57;100346.69;;;19.79;63.34
24154;BME280;12312;53.362;-1.518;2023-05-13T12:47:47;100349.09;;;20.01;61.08
24154;BME280;12312;53.362;-1.518;2023-05-13T12:50:32;100339.50;;;21.00;57.87
24154;BME280;12312;53.362;-1.518;2023-05-13T12:53:16;100339.16;;;21.13;58.73
24154;BME280;12312;53.362;-1.518;2023-05-13T12:56:00;100332.75;;;21.13;56.46
24154;BME280;12312;53.362;-1.518;2023-05-13T12:58:44;100336.53;;;21.65;55.70
24154;BME280;12312;53.362;-1.518;2023-05-13T13:01:28;100344.88;;;21.54;55.80
24154;BME280;12312;53.362;-1.518;2023-05-13T13:04:12;100338.88;;;19.76;61.14
24154;BME280;12312;53.362;-1.518;2023-05-13T13:06:59;100337.50;;;20.56;58.77
24154;BME280;12312;53.362;-1.518;2023-05-13T13:09:42;100331.22;;;20.19;56.53
24154;BME280;12312;53.362;-1.518;2023-05-13T13:12:26;100332.50;;;21.07;55.05
24154;BME280;12312;53.362;-1.518;2023-05-13T13:15:11;100327.09;;;20.61;58.20
24154;BME280;12312;53.362;-1.518;2023-05-13T13:17:55;100311.97;;;20.68;57.07
24154;BME280;12312;53.362;-1.518;2023-05-13T13:20:39;100311.22;;;21.12;55.76
24154;BME280;12312;53.362;-1.518;2023-05-13T13:23:24;100301.56;;;20.73;57.65
24154;BME280;12312;53.362;-1.518;2023-05-13T13:26:08;100314.59;;;19.26;60.77
24154;BME280;12312;53.362;-1.518;2023-05-13T13:28:52;100316.19;;;20.80;57.50
24154;BME280;12312;53.362;-1.518;2023-05-13T13:31:36;100303.81;;;20.50;59.86
24154;BME280;12312;53.362;-1.518;2023-05-13T13:34:19;100297.19;;;19.88;62.97
24154;BME280;12312;53.362;-1.518;2023-05-13T13:37:04;100297.66;;;18.56;66.64
24154;BME280;12312;53.362;-1.518;2023-05-13T13:39:48;100313.22;;;18.83;66.47
24154;BME280;12312;53.362;-1.518;2023-05-13T13:42:33;100300.25;;;18.26;76.91
24154;BME280;12312;53.362;-1.518;2023-05-13T13:45:17;100299.97;;;17.36;76.31
24154;BME280;12312;53.362;-1.518;2023-05-13T13:48:06;100296.88;;;16.21;80.64
24154;BME280;12312;53.362;-1.518;2023-05-13T13:50:50;100300.47;;;16.76;81.13
24154;BME280;12312;53.362;-1.518;2023-05-13T13:53:35;100290.78;;;16.41;83.80
24154;BME280;12312;53.362;-1.518;2023-05-13T13:56:19;100285.63;;;16.16;84.59
24154;BME280;12312;53.362;-1.518;2023-05-13T13:59:04;100280.03;;;16.41;81.26
24154;BME280;12312;53.362;-1.518;2023-05-13T14:01:48;100284.94;;;16.36;83.37
24154;BME280;12312;53.362;-1.518;2023-05-13T14:04:32;100280.84;;;15.97;85.86
24154;BME280;12312;53.362;-1.518;2023-05-13T14:07:18;100270.38;;;15.59;89.07
24154;BME280;12312;53.362;-1.518;2023-05-13T14:10:04;100274.97;;;16.03;89.46
24154;BME280;12312;53.362;-1.518;2023-05-13T14:12:54;100279.53;;;16.25;90.16
24154;BME280;12312;53.362;-1.518;2023-05-13T14:15:38;100273.69;;;16.42;86.79
24154;BME280;12312;53.362;-1.518;2023-05-13T14:18:22;100265.38;;;16.34;84.91
24154;BME280;12312;53.362;-1.518;2023-05-13T14:21:06;100263.94;;;16.52;88.39
24154;BME280;12312;53.362;-1.518;2023-05-13T14:23:50;100259.13;;;16.33;84.96
24154;BME280;12312;53.362;-1.518;2023-05-13T14:26:34;100256.94;;;16.27;82.81